sensor_id;sensor_type;location;lat;lon;timestamp;pressure;altitude;pressure_sealevel;temperature;humidity
71344;BME280;59146;43.850;25.948;2022-12-18T00:01:51;101877.69;;;5.31;79.79
71344;BME280;59146;43.850;25.948;2022-12-18T00:04:23;101943.47;;;5.73;80.13
71344;BME280;59146;43.850;25.948;2022-12-18T00:06:49;101903.94;;;5.60;79.34
71344;BME280;59146;43.850;25.948;2022-12-18T00:09:15;101937.53;;;5.67;78.38
71344;BME280;59146;43.850;25.948;2022-12-18T00:11:41;101992.72;;;5.73;79.54
71344;BME280;59146;43.850;25.948;2022-12-18T00:14:06;101948.22;;;5.48;79.65
71344;BME280;59146;43.850;25.948;2022-12-18T00:16:31;102008.09;;;5.85;79.11
71344;BME280;59146;43.850;25.948;2022-12-18T00:19:00;102014.25;;;5.77;79.04
71344;BME280;59146;43.850;25.948;2022-12-18T00:21:30;101836.66;;;4.54;79.59
71344;BME280;59146;43.850;25.948;2022-12-18T00:23:56;101970.97;;;5.31;79.67
71344;BME280;59146;43.850;25.948;2022-12-18T00:26:30;102037.84;;;5.61;80.22
71344;BME280;59146;43.850;25.948;2022-12-18T00:28:59;102001.97;;;5.36;80.21
71344;BME280;59146;43.850;25.948;2022-12-18T00:31:25;101963.38;;;5.19;79.99
71344;BME280;59146;43.850;25.948;2022-12-18T00:33:51;101960.84;;;5.15;79.49
71344;BME280;59146;43.850;25.948;2022-12-18T00:36:20;101980.72;;;5.14;79.63
71344;BME280;59146;43.850;25.948;2022-12-18T00:38:46;101996.22;;;5.17;79.32
71344;BME280;59146;43.850;25.948;2022-12-18T00:41:14;102025.34;;;5.33;79.57
71344;BME280;59146;43.850;25.948;2022-12-18T00:44:00;102027.09;;;5.31;79.22
71344;BME280;59146;43.850;25.948;2022-12-18T00:46:25;102063.84;;;5.57;78.69
71344;BME280;59146;43.850;25.948;2022-12-18T00:48:51;102056.03;;;5.58;78.37
71344;BME280;59146;43.850;25.948;2022-12-18T00:51:16;102056.31;;;5.40;78.90
71344;BME280;59146;43.850;25.948;2022-12-18T00:53:41;102056.25;;;5.46;78.50
71344;BME280;59146;43.850;25.948;2022-12-18T00:56:07;102023.72;;;5.27;78.50
71344;BME280;59146;43.850;25.948;2022-12-18T00:58:32;102075.88;;;5.59;78.38
71344;BME280;59146;43.850;25.948;2022-12-18T01:01:00;102095.13;;;5.45;78.16
71344;BME280;59146;43.850;25.948;2022-12-18T01:03:25;102084.88;;;5.37;78.69
71344;BME280;59146;43.850;25.948;2022-12-18T01:05:51;102015.50;;;4.97;78.96
71344;BME280;59146;43.850;25.948;2022-12-18T01:08:16;102070.28;;;5.32;79.10
71344;BME280;59146;43.850;25.948;2022-12-18T01:10:42;102042.75;;;5.23;78.78
71344;BME280;59146;43.850;25.948;2022-12-18T01:13:07;102055.72;;;5.22;78.86
71344;BME280;59146;43.850;25.948;2022-12-18T01:15:33;102078.84;;;5.35;78.59
71344;BME280;59146;43.850;25.948;2022-12-18T01:17:58;102067.66;;;5.33;78.82
71344;BME280;59146;43.850;25.948;2022-12-18T01:20:24;102047.16;;;5.17;78.56
71344;BME280;59146;43.850;25.948;2022-12-18T01:22:49;102071.28;;;5.20;79.03
71344;BME280;59146;43.850;25.948;2022-12-18T01:25:15;102013.00;;;4.92;78.81
71344;BME280;59146;43.850;25.948;2022-12-18T01:27:40;102031.88;;;5.00;79.03
71344;BME280;59146;43.850;25.948;2022-12-18T01:30:06;102012.09;;;4.93;78.58
71344;BME280;59146;43.850;25.948;2022-12-18T01:32:32;102073.69;;;5.34;78.37
71344;BME280;59146;43.850;25.948;2022-12-18T01:34:58;102035.91;;;5.18;78.36
71344;BME280;59146;43.850;25.948;2022-12-18T01:37:23;102022.06;;;5.20;77.43
71344;BME280;59146;43.850;25.948;2022-12-18T01:39:49;102011.81;;;5.14;77.17
71344;BME280;59146;43.850;25.948;2022-12-18T01:42:15;102064.06;;;5.40;78.32
71344;BME280;59146;43.850;25.948;2022-12-18T01:50:19;102104.66;;;5.44;77.12
71344;BME280;59146;43.850;25.948;2022-12-18T01:52:48;102056.59;;;5.22;76.31
71344;BME280;59146;43.850;25.948;2022-12-18T01:55:17;102022.34;;;5.02;76.85
71344;BME280;59146;43.850;25.948;2022-12-18T01:57:43;102090.84;;;5.42;76.72
71344;BME280;59146;43.850;25.948;2022-12-18T02:00:12;102084.13;;;5.29;76.81
71344;BME280;59146;43.850;25.948;2022-12-18T02:02:40;102065.25;;;5.20;77.07
71344;BME280;59146;43.850;25.948;2022-12-18T02:05:07;102095.25;;;5.34;76.99
71344;BME280;59146;43.850;25.948;2022-12-18T02:07:55;102106.63;;;5.24;77.86
71344;BME280;59146;43.850;25.948;2022-12-18T02:10:32;102094.59;;;5.20;77.23
71344;BME280;59146;43.850;25.948;2022-12-18T02:13:32;102076.44;;;5.23;76.88
71344;BME280;59146;43.850;25.948;2022-12-18T02:16:21;102107.31;;;5.40;77.18
71344;BME280;59146;43.850;25.948;2022-12-18T02:18:53;102081.72;;;5.16;76.96
71344;BME280;59146;43.850;25.948;2022-12-18T02:21:23;102110.06;;;5.26;77.50
71344;BME280;59146;43.850;25.948;2022-12-18T02:23:56;102112.66;;;5.26;77.41
71344;BME280;59146;43.850;25.948;2022-12-18T02:26:30;102038.47;;;4.55;78.39
71344;BME280;59146;43.850;25.948;2022-12-18T02:29:19;102120.75;;;5.01;78.11
71344;BME280;59146;43.850;25.948;2022-12-18T02:31:58;102091.75;;;4.73;78.99
71344;BME280;59146;43.850;25.948;2022-12-18T02:34:28;102103.88;;;4.71;79.10
71344;BME280;59146;43.850;25.948;2022-12-18T02:36:56;102101.38;;;4.62;79.44
71344;BME280;59146;43.850;25.948;2022-12-18T02:39:25;102127.09;;;4.75;79.58
71344;BME280;59146;43.850;25.948;2022-12-18T02:41:52;102131.34;;;4.82;78.85
71344;BME280;59146;43.850;25.948;2022-12-18T02:44:17;102111.81;;;4.53;79.19
71344;BME280;59146;43.850;25.948;2022-12-18T02:46:46;102107.59;;;4.43;79.26
71344;BME280;59146;43.850;25.948;2022-12-18T02:57:24;102193.50;;;4.78;78.38
71344;BME280;59146;43.850;25.948;2022-12-18T03:02:38;102209.94;;;4.77;78.53
71344;BME280;59146;43.850;25.948;2022-12-18T03:05:13;102089.09;;;3.95;78.04
71344;BME280;59146;43.850;25.948;2022-12-18T03:08:10;102192.09;;;4.47;78.13
71344;BME280;59146;43.850;25.948;2022-12-18T03:10:35;102233.44;;;4.53;78.44
71344;BME280;59146;43.850;25.948;2022-12-18T03:13:06;102100.44;;;3.76;78.83
71344;BME280;59146;43.850;25.948;2022-12-18T03:15:42;102196.53;;;4.33;78.78
71344;BME280;59146;43.850;25.948;2022-12-18T03:18:55;102210.38;;;4.26;79.28
71344;BME280;59146;43.850;25.948;2022-12-18T03:21:05;102236.19;;;4.32;80.17
71344;BME280;59146;43.850;25.948;2022-12-18T03:23:35;102218.94;;;4.35;79.51
71344;BME280;59146;43.850;25.948;2022-12-18T03:26:07;102159.56;;;4.19;78.36
71344;BME280;59146;43.850;25.948;2022-12-18T03:28:36;102225.56;;;4.63;78.42
71344;BME280;59146;43.850;25.948;2022-12-18T03:31:05;102225.69;;;4.51;78.70
71344;BME280;59146;43.850;25.948;2022-12-18T03:33:42;102226.75;;;4.26;79.45
71344;BME280;59146;43.850;25.948;2022-12-18T03:36:11;102226.72;;;4.31;78.76
71344;BME280;59146;43.850;25.948;2022-12-18T03:38:36;102239.75;;;4.16;78.67
71344;BME280;59146;43.850;25.948;2022-12-18T03:43:50;102273.34;;;4.25;79.55
71344;BME280;59146;43.850;25.948;2022-12-18T03:46:30;102236.38;;;4.08;78.40
71344;BME280;59146;43.850;25.948;2022-12-18T03:48:59;102276.75;;;4.31;78.25
71344;BME280;59146;43.850;25.948;2022-12-18T03:54:06;102171.19;;;3.62;77.48
71344;BME280;59146;43.850;25.948;2022-12-18T03:56:38;102210.56;;;4.01;76.98
71344;BME280;59146;43.850;25.948;2022-12-18T03:59:05;102099.94;;;3.17;77.18
71344;BME280;59146;43.850;25.948;2022-12-18T04:01:35;102267.47;;;3.97;78.33
71344;BME280;59146;43.850;25.948;2022-12-18T04:04:03;102276.91;;;4.04;78.74
71344;BME280;59146;43.850;25.948;2022-12-18T04:06:30;102265.78;;;3.90;78.58
71344;BME280;59146;43.850;25.948;2022-12-18T04:08:58;102239.16;;;3.79;78.44
71344;BME280;59146;43.850;25.948;2022-12-18T04:11:23;102191.03;;;3.48;78.87
71344;BME280;59146;43.850;25.948;2022-12-18T04:13:49;102195.31;;;3.58;78.39
71344;BME280;59146;43.850;25.948;2022-12-18T04:16:14;102280.44;;;3.91;78.13
71344;BME280;59146;43.850;25.948;2022-12-18T04:18:40;102167.00;;;3.41;77.26
71344;BME280;59146;43.850;25.948;2022-12-18T04:21:05;102274.31;;;4.06;77.39
71344;BME280;59146;43.850;25.948;2022-12-18T04:23:30;102236.59;;;3.74;78.27
71344;BME280;59146;43.850;25.948;2022-12-18T04:25:56;102242.69;;;3.57;78.83
71344;BME280;59146;43.850;25.948;2022-12-18T04:28:21;102296.75;;;3.96;78.49
71344;BME280;59146;43.850;25.948;2022-12-18T04:30:48;102320.03;;;3.94;78.43
71344;BME280;59146;43.850;25.948;2022-12-18T04:33:13;102254.78;;;3.47;78.90
71344;BME280;59146;43.850;25.948;2022-12-18T04:35:40;102301.16;;;3.77;79.13
71344;BME280;59146;43.850;25.948;2022-12-18T04:38:07;102265.91;;;3.63;79.25
71344;BME280;59146;43.850;25.948;2022-12-18T04:40:33;102235.81;;;3.48;78.70
71344;BME280;59146;43.850;25.948;2022-12-18T04:42:59;102262.47;;;3.64;79.04
71344;BME280;59146;43.850;25.948;2022-12-18T04:45:24;102295.19;;;3.68;79.24
71344;BME280;59146;43.850;25.948;2022-12-18T04:47:50;102277.19;;;3.45;79.69
71344;BME280;59146;43.850;25.948;2022-12-18T04:50:15;102265.13;;;3.40;79.21
71344;BME280;59146;43.850;25.948;2022-12-18T04:52:41;102287.53;;;3.42;79.27
71344;BME280;59146;43.850;25.948;2022-12-18T04:55:06;102336.53;;;3.68;78.89
71344;BME280;59146;43.850;25.948;2022-12-18T04:57:32;102323.63;;;3.60;78.58
71344;BME280;59146;43.850;25.948;2022-12-18T04:59:57;102310.75;;;3.44;78.98
71344;BME280;59146;43.850;25.948;2022-12-18T05:02:23;102374.38;;;3.84;78.39
71344;BME280;59146;43.850;25.948;2022-12-18T05:04:48;102359.81;;;3.63;78.04
71344;BME280;59146;43.850;25.948;2022-12-18T05:07:13;102400.28;;;3.61;78.55
71344;BME280;59146;43.850;25.948;2022-12-18T05:09:39;102381.34;;;3.56;79.06
71344;BME280;59146;43.850;25.948;2022-12-18T05:12:04;102371.00;;;3.64;78.63
71344;BME280;59146;43.850;25.948;2022-12-18T05:14:30;102382.16;;;3.73;78.04
71344;BME280;59146;43.850;25.948;2022-12-18T05:16:55;102318.59;;;3.09;78.42
71344;BME280;59146;43.850;25.948;2022-12-18T05:19:21;102411.47;;;3.69;78.89
71344;BME280;59146;43.850;25.948;2022-12-18T05:21:46;102417.53;;;3.58;78.96
71344;BME280;59146;43.850;25.948;2022-12-18T05:24:11;102393.41;;;3.54;78.68
71344;BME280;59146;43.850;25.948;2022-12-18T05:26:37;102387.38;;;3.58;77.69
71344;BME280;59146;43.850;25.948;2022-12-18T05:29:02;102276.47;;;2.63;77.87
71344;BME280;59146;43.850;25.948;2022-12-18T05:31:27;102394.31;;;3.26;78.63
71344;BME280;59146;43.850;25.948;2022-12-18T05:33:53;102395.16;;;3.40;78.68
71344;BME280;59146;43.850;25.948;2022-12-18T05:36:19;102377.06;;;3.46;78.27
71344;BME280;59146;43.850;25.948;2022-12-18T05:38:44;102308.28;;;2.98;79.12
71344;BME280;59146;43.850;25.948;2022-12-18T05:41:10;102432.19;;;3.57;79.70
71344;BME280;59146;43.850;25.948;2022-12-18T05:43:37;102384.81;;;3.42;79.04
71344;BME280;59146;43.850;25.948;2022-12-18T05:46:04;102396.88;;;3.46;78.20
71344;BME280;59146;43.850;25.948;2022-12-18T05:48:30;102428.75;;;3.54;78.20
71344;BME280;59146;43.850;25.948;2022-12-18T05:50:55;102366.78;;;3.13;77.94
71344;BME280;59146;43.850;25.948;2022-12-18T05:53:21;102453.72;;;3.52;78.13
71344;BME280;59146;43.850;25.948;2022-12-18T05:55:47;102400.34;;;3.37;77.46
71344;BME280;59146;43.850;25.948;2022-12-18T05:58:14;102451.13;;;3.56;77.29
71344;BME280;59146;43.850;25.948;2022-12-18T06:00:42;102448.53;;;3.46;78.02
71344;BME280;59146;43.850;25.948;2022-12-18T06:03:09;102458.03;;;3.56;78.58
71344;BME280;59146;43.850;25.948;2022-12-18T06:05:39;102402.91;;;3.30;77.99
71344;BME280;59146;43.850;25.948;2022-12-18T06:08:05;102458.88;;;3.64;77.88
71344;BME280;59146;43.850;25.948;2022-12-18T06:10:34;102255.81;;;2.25;78.37
71344;BME280;59146;43.850;25.948;2022-12-18T06:13:00;102371.09;;;2.88;78.77
71344;BME280;59146;43.850;25.948;2022-12-18T06:15:25;102483.84;;;3.48;78.86
71344;BME280;59146;43.850;25.948;2022-12-18T06:17:51;102488.16;;;3.60;78.00
71344;BME280;59146;43.850;25.948;2022-12-18T06:20:16;102479.53;;;3.44;78.06
71344;BME280;59146;43.850;25.948;2022-12-18T06:22:42;102455.44;;;3.44;77.78
71344;BME280;59146;43.850;25.948;2022-12-18T06:25:07;102492.44;;;3.71;77.69
71344;BME280;59146;43.850;25.948;2022-12-18T06:27:33;102483.84;;;3.74;77.35
71344;BME280;59146;43.850;25.948;2022-12-18T06:29:59;102476.09;;;3.48;78.26
71344;BME280;59146;43.850;25.948;2022-12-18T06:32:25;102538.13;;;3.66;78.22
71344;BME280;59146;43.850;25.948;2022-12-18T06:34:50;102486.47;;;3.50;78.18
71344;BME280;59146;43.850;25.948;2022-12-18T06:37:16;102471.75;;;3.73;76.76
71344;BME280;59146;43.850;25.948;2022-12-18T06:39:41;102411.53;;;3.33;77.06
71344;BME280;59146;43.850;25.948;2022-12-18T06:42:06;102517.44;;;3.87;76.58
71344;BME280;59146;43.850;25.948;2022-12-18T06:44:32;102486.44;;;3.66;76.66
71344;BME280;59146;43.850;25.948;2022-12-18T06:46:57;102516.56;;;3.88;76.47
71344;BME280;59146;43.850;25.948;2022-12-18T06:49:22;102549.28;;;4.04;76.19
71344;BME280;59146;43.850;25.948;2022-12-18T06:51:48;102437.34;;;3.33;75.96
71344;BME280;59146;43.850;25.948;2022-12-18T06:54:13;102544.13;;;4.01;76.67
71344;BME280;59146;43.850;25.948;2022-12-18T06:56:38;102487.25;;;3.86;75.57
71344;BME280;59146;43.850;25.948;2022-12-18T06:59:04;102471.78;;;3.80;74.71
71344;BME280;59146;43.850;25.948;2022-12-18T07:01:29;102543.25;;;4.06;75.57
71344;BME280;59146;43.850;25.948;2022-12-18T07:03:56;102506.22;;;3.91;75.59
71344;BME280;59146;43.850;25.948;2022-12-18T07:06:23;102567.38;;;4.29;75.16
71344;BME280;59146;43.850;25.948;2022-12-18T07:08:50;102472.66;;;3.75;74.47
71344;BME280;59146;43.850;25.948;2022-12-18T07:11:17;102530.34;;;3.99;75.30
71344;BME280;59146;43.850;25.948;2022-12-18T07:13:43;102532.97;;;3.77;75.33
71344;BME280;59146;43.850;25.948;2022-12-18T07:16:14;102563.03;;;4.28;74.23
71344;BME280;59146;43.850;25.948;2022-12-18T07:18:40;102569.97;;;4.23;74.00
71344;BME280;59146;43.850;25.948;2022-12-18T07:21:12;102583.78;;;4.13;74.77
71344;BME280;59146;43.850;25.948;2022-12-18T07:23:38;102588.09;;;3.98;75.53
71344;BME280;59146;43.850;25.948;2022-12-18T07:26:05;102549.31;;;3.89;76.41
71344;BME280;59146;43.850;25.948;2022-12-18T07:28:32;102610.47;;;4.22;76.36
71344;BME280;59146;43.850;25.948;2022-12-18T07:31:02;102526.91;;;3.67;76.59
71344;BME280;59146;43.850;25.948;2022-12-18T07:33:27;102621.69;;;4.14;76.49
71344;BME280;59146;43.850;25.948;2022-12-18T07:35:52;102523.47;;;3.49;76.02
71344;BME280;59146;43.850;25.948;2022-12-18T07:38:18;102551.91;;;3.55;76.87
71344;BME280;59146;43.850;25.948;2022-12-18T07:40:43;102511.41;;;3.34;75.92
71344;BME280;59146;43.850;25.948;2022-12-18T07:43:08;102595.84;;;3.95;76.67
71344;BME280;59146;43.850;25.948;2022-12-18T07:45:34;102570.84;;;3.67;76.22
71344;BME280;59146;43.850;25.948;2022-12-18T07:47:59;102576.88;;;3.92;76.12
71344;BME280;59146;43.850;25.948;2022-12-18T07:50:25;102566.53;;;4.12;75.34
71344;BME280;59146;43.850;25.948;2022-12-18T07:52:50;102626.78;;;4.68;74.84
71344;BME280;59146;43.850;25.948;2022-12-18T07:55:15;102566.50;;;4.19;74.72
71344;BME280;59146;43.850;25.948;2022-12-18T07:57:41;102596.63;;;4.49;74.74
71344;BME280;59146;43.850;25.948;2022-12-18T08:00:07;102593.19;;;4.36;74.88
71344;BME280;59146;43.850;25.948;2022-12-18T08:02:33;102643.22;;;4.43;75.04
71344;BME280;59146;43.850;25.948;2022-12-18T08:04:58;102622.53;;;4.35;74.80
71344;BME280;59146;43.850;25.948;2022-12-18T08:07:23;102644.94;;;4.41;73.75
71344;BME280;59146;43.850;25.948;2022-12-18T08:09:49;102486.41;;;3.81;73.39
71344;BME280;59146;43.850;25.948;2022-12-18T08:12:14;102663.03;;;4.71;73.52
71344;BME280;59146;43.850;25.948;2022-12-18T08:14:40;102642.34;;;4.65;73.02
71344;BME280;59146;43.850;25.948;2022-12-18T08:17:05;102634.50;;;4.78;72.03
71344;BME280;59146;43.850;25.948;2022-12-18T08:19:30;102557.84;;;4.34;73.09
71344;BME280;59146;43.850;25.948;2022-12-18T08:21:56;102599.19;;;4.55;72.80
71344;BME280;59146;43.850;25.948;2022-12-18T08:24:22;102659.53;;;4.87;71.84
71344;BME280;59146;43.850;25.948;2022-12-18T08:26:47;102652.66;;;4.71;71.94
71344;BME280;59146;43.850;25.948;2022-12-18T08:29:13;102648.34;;;4.73;71.72
71344;BME280;59146;43.850;25.948;2022-12-18T08:31:38;102563.88;;;4.39;71.61
71344;BME280;59146;43.850;25.948;2022-12-18T08:34:03;102677.59;;;5.07;71.74
71344;BME280;59146;43.850;25.948;2022-12-18T08:36:29;102513.06;;;4.18;71.90
71344;BME280;59146;43.850;25.948;2022-12-18T08:38:54;102664.69;;;4.93;71.67
71344;BME280;59146;43.850;25.948;2022-12-18T08:41:20;102652.59;;;4.98;70.86
71344;BME280;59146;43.850;25.948;2022-12-18T08:43:46;102651.66;;;5.08;70.86
71344;BME280;59146;43.850;25.948;2022-12-18T08:46:41;102662.03;;;5.13;69.64
71344;BME280;59146;43.850;25.948;2022-12-18T08:49:08;102602.66;;;4.58;70.25
71344;BME280;59146;43.850;25.948;2022-12-18T08:51:35;102544.94;;;4.22;70.33
71344;BME280;59146;43.850;25.948;2022-12-18T08:54:01;102670.63;;;5.19;69.36
71344;BME280;59146;43.850;25.948;2022-12-18T08:56:26;102540.63;;;4.24;68.84
71344;BME280;59146;43.850;25.948;2022-12-18T08:58:53;102621.59;;;4.71;70.06
71344;BME280;59146;43.850;25.948;2022-12-18T09:01:19;102673.31;;;4.94;70.20
71344;BME280;59146;43.850;25.948;2022-12-18T09:03:46;102661.19;;;5.03;69.43
71344;BME280;59146;43.850;25.948;2022-12-18T09:06:17;102573.38;;;4.31;69.91
71344;BME280;59146;43.850;25.948;2022-12-18T09:08:43;102689.66;;;5.09;69.66
71344;BME280;59146;43.850;25.948;2022-12-18T09:11:23;102655.22;;;4.80;70.30
71344;BME280;59146;43.850;25.948;2022-12-18T09:13:49;102672.41;;;5.07;70.20
71344;BME280;59146;43.850;25.948;2022-12-18T09:16:15;102618.16;;;4.66;70.32
71344;BME280;59146;43.850;25.948;2022-12-18T09:18:41;102662.91;;;5.04;70.14
71344;BME280;59146;43.850;25.948;2022-12-18T09:21:08;102663.75;;;5.09;70.56
71344;BME280;59146;43.850;25.948;2022-12-18T09:23:34;102678.38;;;5.22;70.22
71344;BME280;59146;43.850;25.948;2022-12-18T09:25:59;102661.13;;;5.21;69.83
71344;BME280;59146;43.850;25.948;2022-12-18T09:28:25;102632.72;;;5.05;69.03
71344;BME280;59146;43.850;25.948;2022-12-18T09:30:50;102690.38;;;5.38;69.99
71344;BME280;59146;43.850;25.948;2022-12-18T09:33:17;102678.44;;;5.10;70.06
71344;BME280;59146;43.850;25.948;2022-12-18T09:35:44;102624.09;;;4.94;70.03
71344;BME280;59146;43.850;25.948;2022-12-18T09:38:17;102630.91;;;5.17;68.87
71344;BME280;59146;43.850;25.948;2022-12-18T09:40:54;102677.53;;;5.19;69.07
71344;BME280;59146;43.850;25.948;2022-12-18T09:43:29;102692.13;;;5.36;68.79
71344;BME280;59146;43.850;25.948;2022-12-18T09:46:01;102537.97;;;4.49;68.31
71344;BME280;59146;43.850;25.948;2022-12-18T09:48:32;102682.44;;;5.70;67.68
71344;BME280;59146;43.850;25.948;2022-12-18T09:51:04;102673.22;;;5.16;68.16
71344;BME280;59146;43.850;25.948;2022-12-18T09:53:37;102687.03;;;5.23;68.79
71344;BME280;59146;43.850;25.948;2022-12-18T09:56:04;102668.00;;;5.25;69.09
71344;BME280;59146;43.850;25.948;2022-12-18T09:58:39;102631.78;;;5.12;68.37
71344;BME280;59146;43.850;25.948;2022-12-18T10:01:11;102602.56;;;4.86;68.79
71344;BME280;59146;43.850;25.948;2022-12-18T10:03:37;102627.53;;;5.02;69.17
71344;BME280;59146;43.850;25.948;2022-12-18T10:06:11;102612.84;;;5.02;68.59
71344;BME280;59146;43.850;25.948;2022-12-18T10:14:05;102693.88;;;5.37;68.89
71344;BME280;59146;43.850;25.948;2022-12-18T10:22:07;102711.22;;;5.23;69.01
71344;BME280;59146;43.850;25.948;2022-12-18T10:24:42;102711.16;;;5.31;69.03
71344;BME280;59146;43.850;25.948;2022-12-18T10:27:17;102643.91;;;5.05;68.92
71344;BME280;59146;43.850;25.948;2022-12-18T10:29:43;102687.00;;;5.29;68.53
71344;BME280;59146;43.850;25.948;2022-12-18T10:32:15;102662.03;;;5.04;68.97
71344;BME280;59146;43.850;25.948;2022-12-18T10:34:44;102700.81;;;5.29;69.18
71344;BME280;59146;43.850;25.948;2022-12-18T10:37:16;102688.78;;;5.12;69.12
71344;BME280;59146;43.850;25.948;2022-12-18T10:39:42;102704.31;;;5.18;69.50
71344;BME280;59146;43.850;25.948;2022-12-18T10:42:11;102651.72;;;4.96;69.89
71344;BME280;59146;43.850;25.948;2022-12-18T10:44:41;102672.38;;;5.10;69.81
71344;BME280;59146;43.850;25.948;2022-12-18T10:47:12;102645.69;;;4.87;69.44
71344;BME280;59146;43.850;25.948;2022-12-18T10:49:46;102713.84;;;5.10;69.02
71344;BME280;59146;43.850;25.948;2022-12-18T10:52:24;102726.78;;;5.14;69.33
71344;BME280;59146;43.850;25.948;2022-12-18T10:54:57;102638.88;;;4.61;69.10
71344;BME280;59146;43.850;25.948;2022-12-18T11:00:00;102738.81;;;5.33;69.65
71344;BME280;59146;43.850;25.948;2022-12-18T11:02:37;102682.75;;;5.01;69.27
71344;BME280;59146;43.850;25.948;2022-12-18T11:05:31;102735.28;;;5.49;68.54
71344;BME280;59146;43.850;25.948;2022-12-18T11:07:58;102664.69;;;4.96;69.20
71344;BME280;59146;43.850;25.948;2022-12-18T11:10:32;102725.78;;;5.48;68.95
71344;BME280;59146;43.850;25.948;2022-12-18T11:13:16;102710.19;;;5.56;67.34
71344;BME280;59146;43.850;25.948;2022-12-18T11:15:42;102659.41;;;5.16;67.83
71344;BME280;59146;43.850;25.948;2022-12-18T11:18:17;102673.22;;;5.19;68.55
71344;BME280;59146;43.850;25.948;2022-12-18T11:20:50;102736.91;;;5.72;67.76
71344;BME280;59146;43.850;25.948;2022-12-18T11:23:18;102688.53;;;5.61;67.38
71344;BME280;59146;43.850;25.948;2022-12-18T11:25:57;102745.59;;;5.58;67.61
71344;BME280;59146;43.850;25.948;2022-12-18T11:28:49;102701.59;;;5.48;67.46
71344;BME280;59146;43.850;25.948;2022-12-18T11:33:50;102717.94;;;5.60;66.70
71344;BME280;59146;43.850;25.948;2022-12-18T11:36:18;102686.91;;;5.45;67.22
71344;BME280;59146;43.850;25.948;2022-12-18T11:38:45;102683.50;;;5.37;66.88
71344;BME280;59146;43.850;25.948;2022-12-18T11:41:32;102724.75;;;5.77;66.17
71344;BME280;59146;43.850;25.948;2022-12-18T11:44:25;102702.38;;;5.57;66.55
71344;BME280;59146;43.850;25.948;2022-12-18T11:46:55;102691.22;;;5.45;67.28
71344;BME280;59146;43.850;25.948;2022-12-18T11:49:25;102755.00;;;5.87;67.06
71344;BME280;59146;43.850;25.948;2022-12-18T11:52:00;102686.13;;;5.28;67.28
71344;BME280;59146;43.850;25.948;2022-12-18T11:54:29;102721.44;;;5.56;67.03
71344;BME280;59146;43.850;25.948;2022-12-18T11:57:19;102739.50;;;5.70;66.84
71344;BME280;59146;43.850;25.948;2022-12-18T12:00:01;102746.34;;;5.79;66.94
71344;BME280;59146;43.850;25.948;2022-12-18T12:02:47;102744.78;;;5.49;67.21
71344;BME280;59146;43.850;25.948;2022-12-18T12:16:01;102766.28;;;5.74;67.25
71344;BME280;59146;43.850;25.948;2022-12-18T12:26:26;102758.31;;;6.08;66.43
71344;BME280;59146;43.850;25.948;2022-12-18T12:32:02;102684.47;;;5.15;67.66
71344;BME280;59146;43.850;25.948;2022-12-18T12:34:44;102759.47;;;5.45;68.58
71344;BME280;59146;43.850;25.948;2022-12-18T12:39:45;102612.91;;;4.86;66.90
71344;BME280;59146;43.850;25.948;2022-12-18T12:45:22;102684.53;;;4.94;68.29
71344;BME280;59146;43.850;25.948;2022-12-18T12:47:52;102739.66;;;5.31;68.01
71344;BME280;59146;43.850;25.948;2022-12-18T12:50:20;102773.31;;;5.50;67.74
71344;BME280;59146;43.850;25.948;2022-12-18T12:52:51;102745.69;;;5.37;67.98
71344;BME280;59146;43.850;25.948;2022-12-18T12:55:21;102698.34;;;4.84;68.92
71344;BME280;59146;43.850;25.948;2022-12-18T13:03:50;102655.25;;;4.68;68.24
71344;BME280;59146;43.850;25.948;2022-12-18T13:09:03;102726.84;;;4.84;69.10
71344;BME280;59146;43.850;25.948;2022-12-18T13:11:40;102740.59;;;5.07;68.57
71344;BME280;59146;43.850;25.948;2022-12-18T13:14:37;102784.59;;;5.24;68.77
71344;BME280;59146;43.850;25.948;2022-12-18T13:20:19;102808.69;;;5.62;68.16
71344;BME280;59146;43.850;25.948;2022-12-18T13:22:47;102750.06;;;5.23;67.91
71344;BME280;59146;43.850;25.948;2022-12-18T13:25:32;102818.25;;;5.46;68.77
71344;BME280;59146;43.850;25.948;2022-12-18T13:28:09;102819.88;;;5.69;68.29
71344;BME280;59146;43.850;25.948;2022-12-18T13:30:45;102758.66;;;5.33;67.45
71344;BME280;59146;43.850;25.948;2022-12-18T13:38:33;102842.38;;;5.63;67.91
71344;BME280;59146;43.850;25.948;2022-12-18T13:41:21;102814.72;;;5.59;67.56
71344;BME280;59146;43.850;25.948;2022-12-18T13:43:49;102799.22;;;5.47;66.75
71344;BME280;59146;43.850;25.948;2022-12-18T13:46:29;102858.00;;;5.48;68.02
71344;BME280;59146;43.850;25.948;2022-12-18T13:49:05;102837.28;;;5.38;68.16
71344;BME280;59146;43.850;25.948;2022-12-18T13:51:33;102833.84;;;5.31;68.48
71344;BME280;59146;43.850;25.948;2022-12-18T13:54:13;102858.88;;;5.22;69.55
71344;BME280;59146;43.850;25.948;2022-12-18T13:56:45;102839.03;;;5.13;69.14
71344;BME280;59146;43.850;25.948;2022-12-18T14:01:44;102862.34;;;4.97;69.96
71344;BME280;59146;43.850;25.948;2022-12-18T14:04:22;102760.50;;;4.24;70.33
71344;BME280;59146;43.850;25.948;2022-12-18T14:06:51;102664.78;;;3.78;69.57
71344;BME280;59146;43.850;25.948;2022-12-18T14:09:23;102723.41;;;4.05;70.45
71344;BME280;59146;43.850;25.948;2022-12-18T14:11:50;102861.50;;;4.93;70.45
71344;BME280;59146;43.850;25.948;2022-12-18T14:14:17;102871.00;;;5.05;70.16
71344;BME280;59146;43.850;25.948;2022-12-18T14:16:43;102744.13;;;4.26;69.86
71344;BME280;59146;43.850;25.948;2022-12-18T14:19:16;102824.41;;;4.73;70.46
71344;BME280;59146;43.850;25.948;2022-12-18T14:21:47;102880.50;;;5.10;70.29
71344;BME280;59146;43.850;25.948;2022-12-18T14:24:19;102846.81;;;4.91;69.90
71344;BME280;59146;43.850;25.948;2022-12-18T14:26:47;102847.69;;;4.67;70.62